AAL1540 KCLT-KCMH
Flight info
| Callsign | AAL1540 |
|---|---|
| Flight time | 0h 55m |
| Altitude | 28000 |
| Route | WEAZL5 CLAWD MCGNS SCRLT2 |
| Aircraft | B738/M-SDE2E3FGHIRWXY/LB1 |
Departure
| Time | 2026-05-04 21:58 |
|---|---|
| Airport | Charlotte Douglas International Airport (KCLT) |
Arrival
| Time | 2026-05-04 22:53 |
|---|---|
| Airport | John Glenn Columbus International Airport (KCMH) |
| Time | Latitude | Longitude | Altitude | Speed | Heading |
|---|---|---|---|---|---|
| 2026-05-04 21:29 | 35.21877 | -80.94473 | 730 ft | 0 kts | 286° |
| 2026-05-04 21:46 | 35.21876 | -80.94469 | 731 ft | 3 kts | 287° |
| 2026-05-04 21:46 | 35.21870 | -80.94442 | 731 ft | 3 kts | 271° |
| 2026-05-04 21:47 | 35.21873 | -80.94418 | 731 ft | 3 kts | 242° |
| 2026-05-04 21:47 | 35.21887 | -80.94400 | 730 ft | 3 kts | 202° |
| 2026-05-04 21:47 | 35.21910 | -80.94392 | 731 ft | 3 kts | 189° |
| 2026-05-04 21:47 | 35.21922 | -80.94389 | 731 ft | 3 kts | 190° |
| 2026-05-04 21:48 | 35.21898 | -80.94395 | 731 ft | 3 kts | 190° |
| 2026-05-04 21:48 | 35.21877 | -80.94399 | 730 ft | 1 kts | 188° |
| 2026-05-04 21:48 | 35.21856 | -80.94403 | 730 ft | 3 kts | 189° |
| 2026-05-04 21:48 | 35.21832 | -80.94406 | 731 ft | 3 kts | 185° |
| 2026-05-04 21:49 | 35.21809 | -80.94406 | 731 ft | 3 kts | 177° |
| 2026-05-04 21:49 | 35.21801 | -80.94405 | 731 ft | 0 kts | 176° |
| 2026-05-04 21:51 | 35.21795 | -80.94405 | 731 ft | 3 kts | 176° |
| 2026-05-04 21:52 | 35.21748 | -80.94405 | 731 ft | 9 kts | 189° |
| 2026-05-04 21:52 | 35.21693 | -80.94438 | 730 ft | 9 kts | 221° |
| 2026-05-04 21:52 | 35.21648 | -80.94502 | 731 ft | 12 kts | 234° |
| 2026-05-04 21:52 | 35.21621 | -80.94616 | 731 ft | 16 kts | 265° |
| 2026-05-04 21:53 | 35.21615 | -80.94751 | 731 ft | 16 kts | 266° |
| 2026-05-04 21:53 | 35.21608 | -80.94870 | 732 ft | 13 kts | 266° |
| 2026-05-04 21:53 | 35.21603 | -80.94979 | 730 ft | 13 kts | 278° |
| 2026-05-04 21:53 | 35.21673 | -80.95026 | 733 ft | 13 kts | 355° |
| 2026-05-04 21:54 | 35.21785 | -80.95036 | 733 ft | 20 kts | 356° |
| 2026-05-04 21:54 | 35.21921 | -80.95048 | 733 ft | 19 kts | 356° |
| 2026-05-04 21:54 | 35.22049 | -80.95059 | 731 ft | 18 kts | 356° |
| 2026-05-04 21:54 | 35.22174 | -80.95070 | 733 ft | 18 kts | 355° |
| 2026-05-04 21:55 | 35.22293 | -80.95081 | 733 ft | 17 kts | 355° |
| 2026-05-04 21:55 | 35.22409 | -80.95091 | 733 ft | 16 kts | 358° |
| 2026-05-04 21:55 | 35.22520 | -80.95098 | 732 ft | 16 kts | 357° |
| 2026-05-04 21:55 | 35.22626 | -80.95107 | 732 ft | 13 kts | 353° |
| 2026-05-04 21:56 | 35.22709 | -80.95122 | 732 ft | 12 kts | 336° |
| 2026-05-04 21:56 | 35.22732 | -80.95210 | 735 ft | 12 kts | 265° |
| 2026-05-04 21:56 | 35.22711 | -80.95298 | 739 ft | 11 kts | 222° |
| 2026-05-04 21:56 | 35.22698 | -80.95309 | 739 ft | 11 kts | 210° |
| 2026-05-04 21:57 | 35.22614 | -80.95310 | 740 ft | 24 kts | 174° |
| 2026-05-04 21:57 | 35.22199 | -80.95271 | 741 ft | 94 kts | 176° |
| 2026-05-04 21:57 | 35.21339 | -80.95198 | 741 ft | 151 kts | 176° |
| 2026-05-04 21:57 | 35.20180 | -80.95027 | 988 ft | 175 kts | 177° |
| 2026-05-04 21:58 | 35.18952 | -80.94842 | 1741 ft | 182 kts | 174° |
| 2026-05-04 21:58 | 35.17693 | -80.94631 | 2487 ft | 190 kts | 175° |
| 2026-05-04 21:58 | 35.16287 | -80.94416 | 2720 ft | 218 kts | 175° |
| 2026-05-04 21:58 | 35.14718 | -80.94192 | 3225 ft | 233 kts | 175° |
| 2026-05-04 21:59 | 35.13038 | -80.94282 | 3615 ft | 251 kts | 202° |
| 2026-05-04 21:59 | 35.11705 | -80.95596 | 4507 ft | 252 kts | 237° |
| 2026-05-04 21:59 | 35.11227 | -80.97629 | 5268 ft | 260 kts | 271° |
| 2026-05-04 21:59 | 35.11684 | -80.99756 | 6151 ft | 265 kts | 293° |
| 2026-05-04 22:00 | 35.12324 | -81.00961 | 6660 ft | 271 kts | 312° |
| 2026-05-04 22:00 | 35.13927 | -81.02134 | 7498 ft | 277 kts | 339° |
| 2026-05-04 22:00 | 35.15833 | -81.02587 | 8301 ft | 282 kts | 349° |
| 2026-05-04 22:00 | 35.17804 | -81.02848 | 9055 ft | 287 kts | 351° |
| 2026-05-04 22:01 | 35.19806 | -81.03076 | 9848 ft | 290 kts | 351° |
| 2026-05-04 22:01 | 35.21835 | -81.03308 | 10442 ft | 300 kts | 351° |
| 2026-05-04 22:01 | 35.23991 | -81.03568 | 10610 ft | 324 kts | 351° |
| 2026-05-04 22:01 | 35.26278 | -81.03851 | 11183 ft | 331 kts | 351° |
| 2026-05-04 22:02 | 35.28574 | -81.04138 | 11993 ft | 332 kts | 351° |
| 2026-05-04 22:02 | 35.30882 | -81.04431 | 12774 ft | 336 kts | 350° |
| 2026-05-04 22:02 | 35.33064 | -81.04715 | 13014 ft | 354 kts | 350° |
| 2026-05-04 22:02 | 35.35546 | -81.05042 | 13452 ft | 366 kts | 350° |
| 2026-05-04 22:03 | 35.38091 | -81.05375 | 14122 ft | 370 kts | 350° |
| 2026-05-04 22:03 | 35.40662 | -81.05710 | 14853 ft | 372 kts | 350° |
| 2026-05-04 22:03 | 35.43244 | -81.06048 | 15607 ft | 374 kts | 350° |
| 2026-05-04 22:03 | 35.45842 | -81.06389 | 16320 ft | 377 kts | 350° |
| 2026-05-04 22:04 | 35.48457 | -81.06733 | 16991 ft | 381 kts | 350° |
| 2026-05-04 22:04 | 35.51102 | -81.07082 | 17677 ft | 384 kts | 350° |
| 2026-05-04 22:04 | 35.53772 | -81.07435 | 18350 ft | 387 kts | 351° |
| 2026-05-04 22:04 | 35.56467 | -81.07784 | 18935 ft | 390 kts | 351° |
| 2026-05-04 22:05 | 35.59149 | -81.08029 | 19518 ft | 394 kts | 353° |
| 2026-05-04 22:05 | 35.61892 | -81.08224 | 20100 ft | 397 kts | 353° |
| 2026-05-04 22:05 | 35.64659 | -81.08429 | 20662 ft | 399 kts | 352° |
| 2026-05-04 22:05 | 35.67446 | -81.08650 | 21222 ft | 402 kts | 352° |
| 2026-05-04 22:06 | 35.70246 | -81.08877 | 21772 ft | 405 kts | 352° |
| 2026-05-04 22:06 | 35.73073 | -81.09106 | 22310 ft | 408 kts | 351° |
| 2026-05-04 22:06 | 35.75920 | -81.09337 | 22838 ft | 411 kts | 351° |
| 2026-05-04 22:06 | 35.78787 | -81.09569 | 23353 ft | 414 kts | 351° |
| 2026-05-04 22:07 | 35.81674 | -81.09802 | 23819 ft | 417 kts | 351° |
| 2026-05-04 22:07 | 35.84578 | -81.10037 | 24240 ft | 419 kts | 351° |
| 2026-05-04 22:07 | 35.87496 | -81.10273 | 24637 ft | 422 kts | 351° |
| 2026-05-04 22:07 | 35.90436 | -81.10510 | 25052 ft | 424 kts | 351° |
| 2026-05-04 22:08 | 35.93387 | -81.10749 | 25465 ft | 427 kts | 351° |
| 2026-05-04 22:08 | 35.96362 | -81.10991 | 25827 ft | 430 kts | 351° |
| 2026-05-04 22:08 | 35.99363 | -81.11234 | 26224 ft | 432 kts | 351° |
| 2026-05-04 22:08 | 36.02365 | -81.11477 | 26631 ft | 434 kts | 351° |
| 2026-05-04 22:09 | 36.05383 | -81.11722 | 27074 ft | 435 kts | 351° |
| 2026-05-04 22:09 | 36.08395 | -81.11964 | 27651 ft | 432 kts | 351° |
| 2026-05-04 22:09 | 36.11391 | -81.12207 | 28025 ft | 433 kts | 351° |
| 2026-05-04 22:10 | 36.17421 | -81.12698 | 28041 ft | 432 kts | 351° |
| 2026-05-04 22:10 | 36.23397 | -81.13185 | 28039 ft | 431 kts | 351° |
| 2026-05-04 22:11 | 36.29363 | -81.13674 | 28037 ft | 433 kts | 351° |
| 2026-05-04 22:11 | 36.35389 | -81.14167 | 28013 ft | 434 kts | 351° |
| 2026-05-04 22:12 | 36.41391 | -81.14790 | 27995 ft | 430 kts | 345° |
| 2026-05-04 22:12 | 36.44260 | -81.15696 | 27991 ft | 422 kts | 335° |
| 2026-05-04 22:12 | 36.46995 | -81.16993 | 28020 ft | 421 kts | 334° |
| 2026-05-04 22:13 | 36.52434 | -81.19647 | 27998 ft | 419 kts | 334° |
| 2026-05-04 22:13 | 36.57864 | -81.22281 | 27955 ft | 419 kts | 334° |
| 2026-05-04 22:13 | 36.60578 | -81.23587 | 27960 ft | 418 kts | 334° |
| 2026-05-04 22:14 | 36.63296 | -81.24891 | 27977 ft | 418 kts | 334° |
| 2026-05-04 22:14 | 36.66007 | -81.26189 | 27994 ft | 418 kts | 334° |
| 2026-05-04 22:14 | 36.68727 | -81.27491 | 28009 ft | 419 kts | 334° |
| 2026-05-04 22:15 | 36.74158 | -81.30093 | 28016 ft | 418 kts | 334° |
| 2026-05-04 22:15 | 36.79585 | -81.32696 | 28024 ft | 417 kts | 334° |
| 2026-05-04 22:16 | 36.85000 | -81.35297 | 28024 ft | 417 kts | 334° |
| 2026-05-04 22:16 | 36.90411 | -81.37901 | 28032 ft | 417 kts | 334° |
| 2026-05-04 22:17 | 36.95785 | -81.40492 | 28039 ft | 417 kts | 334° |
| 2026-05-04 22:17 | 37.01210 | -81.43111 | 28019 ft | 418 kts | 334° |
| 2026-05-04 22:18 | 37.06643 | -81.45738 | 27998 ft | 419 kts | 334° |
| 2026-05-04 22:18 | 37.09360 | -81.47053 | 27994 ft | 419 kts | 334° |
| 2026-05-04 22:18 | 37.12082 | -81.48371 | 27980 ft | 420 kts | 334° |
| 2026-05-04 22:18 | 37.14809 | -81.49693 | 27958 ft | 420 kts | 334° |
| 2026-05-04 22:19 | 37.17530 | -81.51013 | 27973 ft | 419 kts | 334° |
| 2026-05-04 22:19 | 37.20248 | -81.52333 | 27949 ft | 420 kts | 334° |
| 2026-05-04 22:19 | 37.22973 | -81.53657 | 27942 ft | 420 kts | 334° |
| 2026-05-04 22:19 | 37.25705 | -81.54986 | 27932 ft | 421 kts | 334° |
| 2026-05-04 22:20 | 37.28432 | -81.56312 | 27951 ft | 421 kts | 334° |
| 2026-05-04 22:20 | 37.31170 | -81.57646 | 27931 ft | 422 kts | 334° |
| 2026-05-04 22:20 | 37.33909 | -81.58981 | 27924 ft | 422 kts | 334° |
| 2026-05-04 22:20 | 37.36643 | -81.60314 | 27930 ft | 422 kts | 334° |
| 2026-05-04 22:21 | 37.39386 | -81.61654 | 27930 ft | 423 kts | 334° |
| 2026-05-04 22:21 | 37.42128 | -81.62993 | 27939 ft | 423 kts | 334° |
| 2026-05-04 22:21 | 37.44877 | -81.64337 | 27934 ft | 423 kts | 334° |
| 2026-05-04 22:21 | 37.47621 | -81.65680 | 27915 ft | 423 kts | 334° |
| 2026-05-04 22:22 | 37.50361 | -81.67021 | 27928 ft | 423 kts | 334° |
| 2026-05-04 22:22 | 37.53104 | -81.68366 | 27920 ft | 423 kts | 334° |
| 2026-05-04 22:22 | 37.55812 | -81.69694 | 27910 ft | 423 kts | 334° |
| 2026-05-04 22:22 | 37.58551 | -81.71039 | 27922 ft | 423 kts | 334° |
| 2026-05-04 22:23 | 37.61298 | -81.72388 | 27913 ft | 423 kts | 334° |
| 2026-05-04 22:23 | 37.64040 | -81.73736 | 27909 ft | 423 kts | 334° |
| 2026-05-04 22:23 | 37.66784 | -81.75086 | 27944 ft | 423 kts | 334° |
| 2026-05-04 22:23 | 37.69522 | -81.76435 | 27910 ft | 424 kts | 334° |
| 2026-05-04 22:24 | 37.72274 | -81.77791 | 27920 ft | 424 kts | 334° |
| 2026-05-04 22:24 | 37.75022 | -81.79146 | 27900 ft | 424 kts | 334° |
| 2026-05-04 22:24 | 37.77772 | -81.80504 | 27904 ft | 424 kts | 334° |
| 2026-05-04 22:24 | 37.80516 | -81.81860 | 27894 ft | 424 kts | 334° |
| 2026-05-04 22:25 | 37.83264 | -81.83218 | 27887 ft | 424 kts | 334° |
| 2026-05-04 22:25 | 37.86012 | -81.84577 | 27905 ft | 424 kts | 334° |
| 2026-05-04 22:25 | 37.88754 | -81.85935 | 27888 ft | 424 kts | 334° |
| 2026-05-04 22:25 | 37.91505 | -81.87299 | 27902 ft | 424 kts | 334° |
| 2026-05-04 22:26 | 37.94249 | -81.88660 | 27902 ft | 424 kts | 334° |
| 2026-05-04 22:26 | 37.96992 | -81.90021 | 27900 ft | 424 kts | 334° |
| 2026-05-04 22:26 | 37.99733 | -81.91383 | 27892 ft | 424 kts | 334° |
| 2026-05-04 22:26 | 38.02478 | -81.92748 | 27898 ft | 423 kts | 334° |
| 2026-05-04 22:27 | 38.05224 | -81.94115 | 27879 ft | 424 kts | 334° |
| 2026-05-04 22:27 | 38.07960 | -81.95477 | 27879 ft | 423 kts | 334° |
| 2026-05-04 22:27 | 38.10704 | -81.96844 | 27883 ft | 423 kts | 334° |
| 2026-05-04 22:27 | 38.13413 | -81.98196 | 27881 ft | 423 kts | 334° |
| 2026-05-04 22:28 | 38.16191 | -81.99583 | 27876 ft | 423 kts | 334° |
| 2026-05-04 22:28 | 38.18896 | -82.00934 | 27878 ft | 423 kts | 334° |
| 2026-05-04 22:28 | 38.21632 | -82.02302 | 27875 ft | 423 kts | 334° |
| 2026-05-04 22:28 | 38.24375 | -82.03675 | 27870 ft | 423 kts | 334° |
| 2026-05-04 22:29 | 38.27110 | -82.05045 | 27877 ft | 423 kts | 334° |
| 2026-05-04 22:29 | 38.29851 | -82.06419 | 27873 ft | 423 kts | 334° |
| 2026-05-04 22:29 | 38.32591 | -82.07794 | 27866 ft | 423 kts | 334° |
| 2026-05-04 22:29 | 38.35328 | -82.09168 | 27872 ft | 423 kts | 334° |
| 2026-05-04 22:30 | 38.38068 | -82.10545 | 27876 ft | 423 kts | 334° |
| 2026-05-04 22:30 | 38.40804 | -82.11921 | 27889 ft | 423 kts | 334° |
| 2026-05-04 22:30 | 38.43541 | -82.13298 | 27868 ft | 422 kts | 334° |
| 2026-05-04 22:30 | 38.46260 | -82.14667 | 27864 ft | 420 kts | 334° |
| 2026-05-04 22:31 | 38.48996 | -82.15985 | 27854 ft | 421 kts | 338° |
| 2026-05-04 22:31 | 38.51877 | -82.16743 | 27870 ft | 423 kts | 346° |
| 2026-05-04 22:31 | 38.54776 | -82.17254 | 27686 ft | 416 kts | 347° |
| 2026-05-04 22:31 | 38.57614 | -82.17709 | 27302 ft | 408 kts | 347° |
| 2026-05-04 22:32 | 38.60418 | -82.18164 | 26836 ft | 403 kts | 347° |
| 2026-05-04 22:32 | 38.63177 | -82.18633 | 26348 ft | 399 kts | 346° |
| 2026-05-04 22:32 | 38.65915 | -82.19120 | 25876 ft | 396 kts | 346° |
| 2026-05-04 22:32 | 38.68626 | -82.19616 | 25387 ft | 392 kts | 346° |
| 2026-05-04 22:33 | 38.71320 | -82.20117 | 24921 ft | 391 kts | 346° |
| 2026-05-04 22:33 | 38.73986 | -82.20619 | 24455 ft | 394 kts | 346° |
| 2026-05-04 22:33 | 38.76697 | -82.21130 | 23964 ft | 393 kts | 346° |
| 2026-05-04 22:33 | 38.79396 | -82.21637 | 23480 ft | 391 kts | 346° |
| 2026-05-04 22:34 | 38.82071 | -82.22140 | 22934 ft | 388 kts | 346° |
| 2026-05-04 22:34 | 38.84732 | -82.22639 | 22417 ft | 384 kts | 346° |
| 2026-05-04 22:34 | 38.87363 | -82.23134 | 21961 ft | 380 kts | 346° |
| 2026-05-04 22:34 | 38.89969 | -82.23624 | 21473 ft | 377 kts | 346° |
| 2026-05-04 22:35 | 38.92544 | -82.24110 | 20994 ft | 373 kts | 346° |
| 2026-05-04 22:35 | 38.95103 | -82.24593 | 20546 ft | 369 kts | 346° |
| 2026-05-04 22:35 | 38.97635 | -82.25071 | 20087 ft | 366 kts | 346° |
| 2026-05-04 22:35 | 39.00143 | -82.25546 | 19641 ft | 363 kts | 346° |
| 2026-05-04 22:36 | 39.01789 | -82.25857 | 19347 ft | 361 kts | 346° |
| 2026-05-04 22:36 | 39.04941 | -82.26454 | 18791 ft | 359 kts | 346° |
| 2026-05-04 22:36 | 39.07407 | -82.26922 | 18346 ft | 359 kts | 346° |
| 2026-05-04 22:36 | 39.09883 | -82.27392 | 17876 ft | 360 kts | 346° |
| 2026-05-04 22:37 | 39.12351 | -82.27858 | 17386 ft | 357 kts | 346° |
| 2026-05-04 22:37 | 39.14798 | -82.28320 | 16902 ft | 354 kts | 345° |
| 2026-05-04 22:37 | 39.17225 | -82.28778 | 16456 ft | 351 kts | 345° |
| 2026-05-04 22:37 | 39.19619 | -82.29231 | 16099 ft | 345 kts | 345° |
| 2026-05-04 22:38 | 39.21975 | -82.29676 | 15714 ft | 341 kts | 345° |
| 2026-05-04 22:38 | 39.24319 | -82.30122 | 15305 ft | 340 kts | 345° |
| 2026-05-04 22:38 | 39.26662 | -82.30570 | 14889 ft | 341 kts | 345° |
| 2026-05-04 22:38 | 39.28999 | -82.31015 | 14466 ft | 338 kts | 344° |
| 2026-05-04 22:39 | 39.31314 | -82.31455 | 14046 ft | 335 kts | 344° |
| 2026-05-04 22:39 | 39.33612 | -82.31893 | 13638 ft | 333 kts | 344° |
| 2026-05-04 22:39 | 39.35896 | -82.32329 | 13176 ft | 332 kts | 344° |
| 2026-05-04 22:39 | 39.38185 | -82.32768 | 12702 ft | 333 kts | 344° |
| 2026-05-04 22:40 | 39.40444 | -82.33200 | 12296 ft | 331 kts | 344° |
| 2026-05-04 22:40 | 39.42717 | -82.33633 | 11868 ft | 329 kts | 344° |
| 2026-05-04 22:40 | 39.44968 | -82.34063 | 11449 ft | 326 kts | 343° |
| 2026-05-04 22:40 | 39.47200 | -82.34488 | 11055 ft | 323 kts | 343° |
| 2026-05-04 22:41 | 39.49409 | -82.34937 | 10706 ft | 316 kts | 339° |
| 2026-05-04 22:41 | 39.51329 | -82.36007 | 10595 ft | 291 kts | 319° |
| 2026-05-04 22:41 | 39.52943 | -82.37504 | 10523 ft | 283 kts | 317° |
| 2026-05-04 22:41 | 39.54003 | -82.38512 | 10442 ft | 277 kts | 316° |
| 2026-05-04 22:42 | 39.55540 | -82.39982 | 10340 ft | 278 kts | 316° |
| 2026-05-04 22:42 | 39.57064 | -82.41433 | 10215 ft | 265 kts | 316° |
| 2026-05-04 22:42 | 39.58520 | -82.42815 | 10098 ft | 255 kts | 315° |
| 2026-05-04 22:42 | 39.59944 | -82.44169 | 9997 ft | 253 kts | 316° |
| 2026-05-04 22:43 | 39.61379 | -82.45539 | 9707 ft | 257 kts | 316° |
| 2026-05-04 22:43 | 39.62818 | -82.46907 | 9410 ft | 256 kts | 315° |
| 2026-05-04 22:43 | 39.64255 | -82.48271 | 9102 ft | 255 kts | 315° |
| 2026-05-04 22:43 | 39.65683 | -82.49626 | 8805 ft | 254 kts | 315° |
| 2026-05-04 22:44 | 39.67112 | -82.50981 | 8518 ft | 254 kts | 315° |
| 2026-05-04 22:44 | 39.68537 | -82.52334 | 8214 ft | 253 kts | 316° |
| 2026-05-04 22:44 | 39.69957 | -82.53682 | 7929 ft | 253 kts | 316° |
| 2026-05-04 22:44 | 39.71378 | -82.55031 | 7624 ft | 253 kts | 316° |
| 2026-05-04 22:45 | 39.72831 | -82.56346 | 7305 ft | 255 kts | 318° |
| 2026-05-04 22:45 | 39.75768 | -82.58901 | 6736 ft | 253 kts | 318° |
| 2026-05-04 22:45 | 39.77232 | -82.60180 | 6455 ft | 253 kts | 318° |
| 2026-05-04 22:46 | 39.78690 | -82.61460 | 6169 ft | 253 kts | 318° |
| 2026-05-04 22:46 | 39.80148 | -82.62740 | 5886 ft | 253 kts | 318° |
| 2026-05-04 22:46 | 39.81716 | -82.63766 | 5564 ft | 266 kts | 339° |
| 2026-05-04 22:46 | 39.83565 | -82.64019 | 5447 ft | 263 kts | 348° |
| 2026-05-04 22:47 | 39.85349 | -82.64184 | 5344 ft | 250 kts | 347° |
| 2026-05-04 22:47 | 39.87043 | -82.64352 | 5200 ft | 240 kts | 347° |
| 2026-05-04 22:47 | 39.88709 | -82.64528 | 5042 ft | 240 kts | 347° |
| 2026-05-04 22:47 | 39.90364 | -82.64701 | 4833 ft | 237 kts | 347° |
| 2026-05-04 22:48 | 39.91997 | -82.65023 | 4355 ft | 238 kts | 339° |
| 2026-05-04 22:48 | 39.93606 | -82.65524 | 4067 ft | 235 kts | 339° |
| 2026-05-04 22:48 | 39.95174 | -82.66025 | 3949 ft | 232 kts | 339° |
| 2026-05-04 22:48 | 39.96732 | -82.66580 | 3804 ft | 228 kts | 329° |
| 2026-05-04 22:49 | 39.97810 | -82.67811 | 3665 ft | 192 kts | 286° |
| 2026-05-04 22:49 | 39.98064 | -82.69402 | 3496 ft | 175 kts | 271° |
| 2026-05-04 22:49 | 39.98227 | -82.70960 | 3260 ft | 171 kts | 269° |
| 2026-05-04 22:49 | 39.98335 | -82.72477 | 3038 ft | 165 kts | 267° |
| 2026-05-04 22:50 | 39.98420 | -82.73941 | 2830 ft | 160 kts | 267° |
| 2026-05-04 22:50 | 39.98499 | -82.75369 | 2621 ft | 156 kts | 266° |
| 2026-05-04 22:50 | 39.98576 | -82.76769 | 2443 ft | 155 kts | 266° |
| 2026-05-04 22:50 | 39.98652 | -82.78174 | 2240 ft | 156 kts | 267° |
| 2026-05-04 22:51 | 39.98729 | -82.79544 | 2018 ft | 150 kts | 267° |
| 2026-05-04 22:51 | 39.98802 | -82.80846 | 1822 ft | 137 kts | 266° |
| 2026-05-04 22:51 | 39.98868 | -82.82050 | 1655 ft | 135 kts | 267° |
| 2026-05-04 22:51 | 39.98936 | -82.83299 | 1473 ft | 141 kts | 269° |
| 2026-05-04 22:52 | 39.99008 | -82.84578 | 1299 ft | 144 kts | 270° |
| 2026-05-04 22:52 | 39.99081 | -82.85885 | 1118 ft | 143 kts | 270° |
| 2026-05-04 22:52 | 39.99158 | -82.87168 | 914 ft | 140 kts | 269° |
| 2026-05-04 22:52 | 39.99233 | -82.88385 | 828 ft | 124 kts | 269° |
| 2026-05-04 22:53 | 39.99270 | -82.89320 | 823 ft | 75 kts | 274° |
| 2026-05-04 22:53 | 39.99299 | -82.89784 | 822 ft | 42 kts | 278° |
| 2026-05-04 22:53 | 39.99366 | -82.90080 | 823 ft | 21 kts | 298° |
| 2026-05-04 22:53 | 39.99454 | -82.90223 | 823 ft | 20 kts | 336° |
| 2026-05-04 22:54 | 39.99503 | -82.90175 | 823 ft | 9 kts | 83° |
| 2026-05-04 22:54 | 39.99497 | -82.90092 | 824 ft | 9 kts | 95° |
| 2026-05-04 22:54 | 39.99492 | -82.90004 | 824 ft | 10 kts | 94° |
| 2026-05-04 22:54 | 39.99513 | -82.89926 | 824 ft | 10 kts | 31° |
| 2026-05-04 22:55 | 39.99576 | -82.89904 | 824 ft | 9 kts | 30° |
| 2026-05-04 22:55 | 39.99594 | -82.89829 | 824 ft | 10 kts | 93° |
| 2026-05-04 22:55 | 39.99589 | -82.89724 | 824 ft | 14 kts | 94° |
| 2026-05-04 22:55 | 39.99579 | -82.89569 | 824 ft | 19 kts | 94° |
| 2026-05-04 22:56 | 39.99569 | -82.89389 | 822 ft | 20 kts | 94° |
| 2026-05-04 22:56 | 39.99559 | -82.89212 | 824 ft | 19 kts | 95° |
| 2026-05-04 22:56 | 39.99547 | -82.89040 | 824 ft | 19 kts | 93° |
| 2026-05-04 22:56 | 39.99539 | -82.88874 | 824 ft | 18 kts | 94° |
| 2026-05-04 22:57 | 39.99529 | -82.88716 | 824 ft | 17 kts | 92° |
| 2026-05-04 22:57 | 39.99522 | -82.88559 | 824 ft | 17 kts | 94° |
| 2026-05-04 22:57 | 39.99514 | -82.88412 | 824 ft | 16 kts | 94° |
| 2026-05-04 22:57 | 39.99505 | -82.88263 | 824 ft | 17 kts | 94° |
| 2026-05-04 22:58 | 39.99496 | -82.88103 | 824 ft | 18 kts | 93° |
| 2026-05-04 22:58 | 39.99495 | -82.87958 | 824 ft | 13 kts | 68° |
| 2026-05-04 22:58 | 39.99574 | -82.87920 | 824 ft | 13 kts | 4° |
| 2026-05-04 22:58 | 39.99675 | -82.87911 | 824 ft | 16 kts | 4° |
| 2026-05-04 22:59 | 39.99783 | -82.87899 | 824 ft | 15 kts | 5° |
| 2026-05-04 22:59 | 39.99886 | -82.87892 | 824 ft | 15 kts | 353° |
| 2026-05-04 22:59 | 39.99961 | -82.87966 | 820 ft | 14 kts | 289° |
| 2026-05-04 22:59 | 39.99973 | -82.88089 | 822 ft | 13 kts | 276° |
| 2026-05-04 23:00 | 39.99959 | -82.88192 | 824 ft | 12 kts | 239° |
| 2026-05-04 23:00 | 39.99911 | -82.88251 | 824 ft | 7 kts | 205° |
| 2026-05-04 23:00 | 39.99867 | -82.88259 | 824 ft | 4 kts | 183° |
| 2026-05-04 23:00 | 39.99853 | -82.88260 | 824 ft | 0 kts | 183° |